Time;durP1;ratioP1;P1;durP2;ratioP2;P2;SDS_P1;SDS_P2;PMS_P1;PMS_P2;Temp;Humidity;BMP_temperature;BMP_pressure;BME280_temperature;BME280_humidity;BME280_pressure;Samples;Min_cycle;Max_cycle;Signal;HPM_P1;HPM_P2
2022/03/01 00:02:04;;;;;;;25.47;23.30;;;;;;;22.48;27.37;95674.59;5823496;28;103241;-57
2022/03/01 00:04:55;;;;;;;26.73;24.47;;;;;;;22.48;27.57;95670.06;5820046;28;102628;-57
2022/03/01 00:07:45;;;;;;;24.30;22.27;;;;;;;22.47;27.50;95668.47;5832615;28;103151;-57
2022/03/01 00:10:36;;;;;;;24.23;22.13;;;;;;;22.48;27.56;95663.94;5823807;28;103828;-57
2022/03/01 00:13:26;;;;;;;25.90;23.67;;;;;;;22.46;27.77;95661.56;5826529;28;103190;-58
2022/03/01 00:16:17;;;;;;;24.57;22.47;;;;;;;22.47;27.25;95652.50;5833197;28;104602;-58
2022/03/01 00:19:08;;;;;;;24.27;22.17;;;;;;;22.47;27.46;95657.81;5833180;28;103292;-58
2022/03/01 00:21:58;;;;;;;23.67;21.67;;;;;;;22.47;27.27;95655.16;5811734;28;103864;-58
2022/03/01 00:24:49;;;;;;;23.47;21.57;;;;;;;22.47;27.48;95655.16;5818630;28;103408;-58
2022/03/01 00:27:40;;;;;;;22.77;20.83;;;;;;;22.45;27.36;95638.69;5839627;28;103307;-58
2022/03/01 00:30:30;;;;;;;22.67;20.67;;;;;;;22.47;27.56;95641.06;5822156;28;103268;-58
2022/03/01 00:33:21;;;;;;;22.60;20.70;;;;;;;22.45;27.16;95638.69;5811527;28;103109;-58
2022/03/01 00:36:11;;;;;;;22.93;21.03;;;;;;;22.45;27.14;95636.03;5816477;28;103239;-58
2022/03/01 00:39:05;;;;;;;20.60;18.97;;;;;;;22.45;27.15;95633.34;5834366;28;102844;-58
2022/03/01 00:41:56;;;;;;;20.63;18.93;;;;;;;22.46;27.15;95639.47;5839884;28;104649;-58
2022/03/01 00:44:46;;;;;;;20.73;18.93;;;;;;;22.45;27.30;95629.91;5819201;28;102714;-57
2022/03/01 00:47:37;;;;;;;20.20;18.50;;;;;;;22.44;27.24;95631.78;5820967;28;103466;-58
2022/03/01 00:50:27;;;;;;;18.70;17.10;;;;;;;22.44;27.20;95629.13;5833192;28;103310;-58
2022/03/01 00:53:18;;;;;;;18.93;17.43;;;;;;;22.44;27.00;95626.44;5839710;28;103284;-58
2022/03/01 00:56:08;;;;;;;19.40;17.80;;;;;;;22.44;27.07;95615.81;5832954;28;102759;-57
2022/03/01 00:58:59;;;;;;;18.30;16.60;;;;;;;22.44;26.98;95615.81;5838443;28;103269;-57
2022/03/01 01:01:50;;;;;;;18.40;16.90;;;;;;;22.44;27.19;95618.47;5827226;28;103293;-57
2022/03/01 01:04:40;;;;;;;17.07;15.67;;;;;;;22.43;26.91;95608.91;5815178;28;104250;-57
2022/03/01 01:07:31;;;;;;;17.50;16.10;;;;;;;22.44;27.05;95615.00;5830976;28;103961;-58
2022/03/01 01:10:22;;;;;;;16.77;15.37;;;;;;;22.44;27.16;95610.47;5835571;28;103623;-58
2022/03/01 01:13:13;;;;;;;16.40;15.07;;;;;;;22.42;27.38;95617.97;5816330;28;102784;-57
2022/03/01 01:16:05;;;;;;;15.73;14.43;;;;;;;22.43;27.15;95616.09;5818654;28;103500;-58
2022/03/01 01:18:55;;;;;;;15.30;14.00;;;;;;;22.42;26.88;95620.63;5792296;28;102811;-58
2022/03/01 01:24:55;;;;;;;15.00;13.80;;;;;;;22.43;27.26;95616.09;5825668;28;103042;-58
2022/03/01 01:27:50;;;;;;;14.00;12.80;;;;;;;22.44;26.73;95615.81;5833149;28;103272;-57
2022/03/01 01:30:41;;;;;;;12.80;11.80;;;;;;;22.44;26.90;95609.69;5828600;28;102836;-56
2022/03/01 01:33:31;;;;;;;13.63;12.53;;;;;;;22.43;26.88;95603.56;5817296;28;103152;-56
2022/03/01 01:36:25;;;;;;;13.10;12.10;;;;;;;22.42;27.05;95604.66;5816060;28;103077;-56
2022/03/01 01:39:15;;;;;;;13.17;12.17;;;;;;;22.42;26.82;95601.97;5831540;28;103442;-57
2022/03/01 01:42:06;;;;;;;13.77;12.60;;;;;;;22.41;26.59;95597.75;5838026;28;102754;-58
2022/03/01 01:44:57;;;;;;;13.40;12.30;;;;;;;22.42;26.78;95593.22;5822898;28;103143;-58
2022/03/01 01:47:49;;;;;;;13.90;12.70;;;;;;;22.41;26.79;95595.06;5834267;28;103272;-58
2022/03/01 01:50:39;;;;;;;12.60;11.50;;;;;;;22.43;27.00;95598.25;5809217;28;104064;-57
2022/03/01 01:53:30;;;;;;;13.13;12.07;;;;;;;22.44;26.67;95599.03;5818930;28;102860;-58
2022/03/01 01:56:21;;;;;;;13.73;12.57;;;;;;;22.43;26.86;95592.91;5831590;28;103175;-57
2022/03/01 01:59:11;;;;;;;12.50;11.50;;;;;;;22.41;26.59;95594.28;5822336;28;103763;-58
2022/03/01 02:02:02;;;;;;;13.00;11.90;;;;;;;22.40;26.58;95588.16;5832178;28;103457;-58
2022/03/01 02:04:53;;;;;;;14.07;12.87;;;;;;;22.41;26.52;95580.97;5831768;28;103105;-57
2022/03/01 02:07:46;;;;;;;12.57;11.57;;;;;;;22.40;26.75;95585.50;5828451;28;103572;-57
2022/03/01 02:10:37;;;;;;;12.20;11.20;;;;;;;22.39;26.67;95581.25;5837262;28;102870;-57
2022/03/01 02:13:27;;;;;;;12.17;11.13;;;;;;;22.40;26.50;95584.72;5835103;28;103198;-58
2022/03/01 02:16:18;;;;;;;13.10;12.00;;;;;;;22.38;26.33;95576.22;5830789;28;102726;-56
2022/03/01 02:19:12;;;;;;;11.80;10.80;;;;;;;22.38;26.67;95579.69;5825639;28;103744;-56
2022/03/01 02:22:05;;;;;;;12.23;11.23;;;;;;;22.39;26.53;95570.63;5825921;28;102787;-57
2022/03/01 02:24:56;;;;;;;12.10;11.10;;;;;;;22.39;26.46;95564.50;5830650;28;102991;-57
2022/03/01 02:27:46;;;;;;;13.00;11.80;;;;;;;22.37;26.38;95556.81;5829160;28;102911;-57
2022/03/01 02:30:37;;;;;;;12.60;11.50;;;;;;;22.37;26.45;95548.03;5832309;28;103183;-57
2022/03/01 02:33:27;;;;;;;12.17;11.10;;;;;;;22.37;26.47;95535.50;5842136;28;102732;-56
2022/03/01 02:36:18;;;;;;;12.40;11.40;;;;;;;22.38;26.21;95536.28;5835375;28;103148;-57
2022/03/01 02:39:08;;;;;;;11.70;10.70;;;;;;;22.36;26.46;95533.94;5823571;28;103150;-56
2022/03/01 02:41:59;;;;;;;12.70;11.60;;;;;;;22.37;26.45;95545.38;5826144;28;103543;-57
2022/03/01 02:44:50;;;;;;;12.03;11.03;;;;;;;22.37;26.57;95546.16;5823902;28;103210;-56
2022/03/01 02:47:41;;;;;;;11.90;10.90;;;;;;;22.35;26.42;95552.84;5840576;28;103937;-57
2022/03/01 02:50:31;;;;;;;11.90;10.90;;;;;;;22.36;26.68;95554.44;5835452;28;104385;-57
2022/03/01 02:53:22;;;;;;;12.13;11.13;;;;;;;22.35;26.31;95550.97;5818753;28;103419;-56
2022/03/01 02:56:13;;;;;;;12.37;11.30;;;;;;;22.35;26.29;95553.63;5815040;28;104039;-56
2022/03/01 02:59:03;;;;;;;11.70;10.70;;;;;;;22.36;26.13;95546.44;5838543;28;103267;-57
2022/03/01 03:01:55;;;;;;;12.20;11.20;;;;;;;22.36;26.08;95554.44;5827345;28;103447;-56
2022/03/01 03:04:46;;;;;;;11.33;10.33;;;;;;;22.35;26.07;95550.97;5837666;28;106079;-56
2022/03/01 03:07:37;;;;;;;11.57;10.17;;;;;;;22.35;26.56;95556.31;5827401;28;102831;-57
2022/03/01 03:10:27;;;;;;;11.00;10.07;;;;;;;22.36;26.04;95557.09;5817654;28;103274;-56
2022/03/01 03:13:19;;;;;;;10.87;9.97;;;;;;;22.34;25.72;95554.72;5829445;28;102830;-56
2022/03/01 03:16:10;;;;;;;11.40;10.40;;;;;;;22.34;26.22;95567.22;5839096;28;103597;-57
2022/03/01 03:19:01;;;;;;;11.20;10.20;;;;;;;22.33;26.12;95557.66;5824481;28;103260;-58
2022/03/01 03:21:51;;;;;;;12.37;11.37;;;;;;;22.32;26.30;95567.50;5827871;28;104265;-57
2022/03/01 03:24:42;;;;;;;12.50;11.40;;;;;;;22.34;26.10;95567.22;5829105;28;102744;-58
2022/03/01 03:27:33;;;;;;;12.60;11.50;;;;;;;22.31;26.29;95573.13;5823863;28;103113;-58
2022/03/01 03:30:23;;;;;;;12.23;11.23;;;;;;;22.32;26.04;95580.03;5815443;28;103198;-57
2022/03/01 03:33:14;;;;;;;12.30;11.27;;;;;;;22.31;25.87;95576.56;5838913;28;103519;-57
2022/03/01 03:36:04;;;;;;;11.77;10.77;;;;;;;22.31;25.84;95579.22;5832213;28;104022;-58
2022/03/01 03:38:55;;;;;;;12.67;11.57;;;;;;;22.31;25.89;95568.59;5840064;28;103320;-57
2022/03/01 03:41:46;;;;;;;13.17;12.07;;;;;;;22.32;26.26;95574.69;5824078;28;102887;-58
2022/03/01 03:44:38;;;;;;;13.43;12.23;;;;;;;22.30;25.89;95574.19;5833884;28;103151;-57
2022/03/01 03:47:29;;;;;;;12.80;11.77;;;;;;;22.31;26.01;95568.59;5828389;28;102704;-58
2022/03/01 03:50:19;;;;;;;12.83;11.73;;;;;;;22.31;25.58;95567.78;5834032;28;103162;-59
2022/03/01 03:53:10;;;;;;;13.43;12.33;;;;;;;22.29;25.86;95573.41;5833963;28;102732;-57
2022/03/01 03:56:00;;;;;;;13.17;12.00;;;;;;;22.29;25.97;95562.75;5834923;28;103751;-57
2022/03/01 03:58:51;;;;;;;12.67;11.57;;;;;;;22.28;25.82;95566.50;5840242;28;102749;-59
2022/03/01 04:01:42;;;;;;;12.50;11.50;;;;;;;22.29;25.62;95568.09;5829387;28;103046;-57
2022/03/01 04:04:34;;;;;;;13.00;11.90;;;;;;;22.25;26.20;95564.41;5811148;28;102886;-56
2022/03/01 04:07:24;;;;;;;12.60;11.47;;;;;;;22.22;26.20;95567.66;5817037;28;103155;-57
2022/03/01 04:10:16;;;;;;;10.50;9.60;;;;;;;22.24;26.53;95564.72;5816194;28;103702;-56
2022/03/01 04:13:07;;;;;;;10.10;9.30;;;;;;;22.28;26.15;95568.38;5831413;28;103481;-57
2022/03/01 04:15:57;;;;;;;10.20;9.33;;;;;;;22.13;25.55;95561.38;5831081;28;102719;-54
2022/03/01 04:18:48;;;;;;;6.80;6.30;;;;;;;21.68;24.88;95568.03;5826600;28;103151;-54
2022/03/01 04:21:39;;;;;;;6.60;5.73;;;;;;;21.47;24.29;95567.44;5839266;28;102721;-56
2022/03/01 04:24:30;;;;;;;5.03;4.53;;;;;;;21.24;23.65;95572.47;5826523;28;103395;-56
2022/03/01 04:27:20;;;;;;;5.10;4.70;;;;;;;21.07;23.63;95572.06;5826722;28;104055;-57
2022/03/01 04:30:12;;;;;;;4.60;4.07;;;;;;;20.72;22.97;95570.50;5839835;28;103150;-54
2022/03/01 04:33:03;;;;;;;4.30;4.00;;;;;;;20.60;23.36;95567.38;5840176;28;103114;-53
2022/03/01 04:35:54;;;;;;;4.00;3.70;;;;;;;20.42;23.47;95574.16;5835501;28;103588;-54
2022/03/01 04:38:44;;;;;;;4.33;4.00;;;;;;;20.23;23.21;95567.88;5839484;28;103744;-54
2022/03/01 04:41:35;;;;;;;4.20;3.90;;;;;;;20.05;22.89;95569.28;5828400;28;103406;-54
2022/03/01 04:44:25;;;;;;;3.87;3.57;;;;;;;19.87;23.03;95573.34;5834162;28;103203;-54
2022/03/01 04:47:15;;;;;;;3.80;3.50;;;;;;;19.64;22.61;95576.59;5827029;28;104407;-54
2022/03/01 04:50:07;;;;;;;3.87;3.43;;;;;;;19.48;23.16;95586.41;5822334;28;102689;-54
2022/03/01 04:52:57;;;;;;;3.57;3.30;;;;;;;19.29;22.57;95580.09;5817384;28;103283;-54
2022/03/01 04:55:48;;;;;;;7.13;3.60;;;;;;;19.66;23.26;95580.59;5817793;28;102865;-56
2022/03/01 04:58:39;;;;;;;3.60;3.30;;;;;;;20.34;23.67;95583.47;5817348;28;103636;-56
2022/03/01 05:01:29;;;;;;;4.33;3.60;;;;;;;20.63;23.93;95580.09;5835284;28;102854;-57
2022/03/01 05:04:22;;;;;;;3.90;3.60;;;;;;;20.82;24.64;95583.69;5831241;28;103197;-55
2022/03/01 05:07:12;;;;;;;4.70;4.30;;;;;;;20.94;24.78;95588.63;5815487;28;103088;-55
2022/03/01 05:10:03;;;;;;;4.00;3.70;;;;;;;21.06;25.39;95588.28;5815272;28;103292;-55
2022/03/01 05:12:57;;;;;;;5.23;4.33;;;;;;;21.22;25.80;95582.56;5828204;28;102782;-56
2022/03/01 05:15:48;;;;;;;4.20;3.80;;;;;;;21.44;26.44;95579.44;5833421;28;103183;-55
2022/03/01 05:18:38;;;;;;;4.73;4.33;;;;;;;21.59;27.16;95589.13;5824112;28;103173;-55
2022/03/01 05:21:29;;;;;;;4.80;4.33;;;;;;;21.69;27.62;95594.34;5820953;28;103123;-55
2022/03/01 05:24:20;;;;;;;5.40;4.73;;;;;;;21.52;26.94;95596.66;5815292;28;102903;-53
2022/03/01 05:27:10;;;;;;;6.00;5.40;;;;;;;21.27;26.67;95595.81;5814672;28;103178;-54
2022/03/01 05:30:01;;;;;;;5.40;5.00;;;;;;;21.20;26.83;95594.53;5814687;28;103129;-54
2022/03/01 05:32:52;;;;;;;6.10;4.43;;;;;;;21.12;26.67;95598.56;5809193;28;103052;-54
2022/03/01 05:35:44;;;;;;;5.70;5.20;;;;;;;21.08;26.65;95600.22;5813205;28;103888;-53
2022/03/01 05:38:34;;;;;;;5.07;4.57;;;;;;;21.07;26.42;95601.28;5813100;28;103423;-53
2022/03/01 05:41:25;;;;;;;4.77;4.37;;;;;;;21.06;26.38;95607.69;5810228;28;103491;-54
2022/03/01 05:44:15;;;;;;;5.23;4.80;;;;;;;21.02;26.47;95611.97;5814458;28;104689;-54
2022/03/01 05:47:06;;;;;;;5.93;5.53;;;;;;;20.99;26.43;95600.00;5816335;28;102872;-53
2022/03/01 05:49:57;;;;;;;5.10;4.70;;;;;;;21.02;26.23;95604.00;5815767;28;103334;-54
2022/03/01 05:52:48;;;;;;;5.40;4.90;;;;;;;21.00;26.31;95603.47;5810826;28;102769;-54
2022/03/01 05:55:39;;;;;;;5.70;5.30;;;;;;;20.95;26.40;95598.97;5813715;28;103478;-54
2022/03/01 05:58:29;;;;;;;6.93;5.70;;;;;;;20.99;26.16;95605.31;5798803;28;103015;-54
2022/03/01 06:01:20;;;;;;;6.23;5.73;;;;;;;20.99;26.20;95607.97;5815640;28;103934;-54
2022/03/01 06:04:10;;;;;;;5.30;4.90;;;;;;;20.99;25.97;95612.50;5810364;28;103188;-54
2022/03/01 06:07:01;;;;;;;5.93;5.40;;;;;;;20.96;25.98;95613.06;5816069;28;103496;-54
2022/03/01 06:09:51;;;;;;;6.13;5.67;;;;;;;20.96;26.05;95613.84;5815822;28;103110;-54
2022/03/01 06:12:42;;;;;;;5.80;5.07;;;;;;;20.98;26.04;95613.56;5816255;28;103206;-54
2022/03/01 06:15:33;;;;;;;5.13;4.73;;;;;;;20.99;25.87;95617.81;5810528;28;102941;-55
2022/03/01 06:18:23;;;;;;;5.07;4.67;;;;;;;21.00;25.99;95619.41;5815781;28;104230;-54
2022/03/01 06:21:14;;;;;;;5.40;4.90;;;;;;;21.09;25.74;95620.41;5798123;28;102909;-54
2022/03/01 06:24:05;;;;;;;4.80;4.50;;;;;;;21.12;25.93;95617.19;5815599;28;103148;-54
2022/03/01 06:26:55;;;;;;;5.13;4.73;;;;;;;21.11;25.81;95620.13;5810442;28;104384;-53
2022/03/01 06:29:46;;;;;;;5.63;5.17;;;;;;;21.16;25.71;95618.19;5815703;28;103160;-54
2022/03/01 06:32:37;;;;;;;4.70;4.40;;;;;;;21.15;25.53;95621.13;5814591;28;103722;-53
2022/03/01 06:35:27;;;;;;;4.77;4.43;;;;;;;21.17;25.74;95624.34;5815881;28;103145;-54
2022/03/01 06:38:18;;;;;;;5.30;4.90;;;;;;;21.16;25.37;95618.19;5810109;28;102975;-54
2022/03/01 06:41:08;;;;;;;5.07;4.67;;;;;;;21.18;25.46;95616.09;5815696;28;103293;-54
2022/03/01 06:43:59;;;;;;;4.50;4.20;;;;;;;21.18;25.61;95610.75;5816181;28;102687;-55
2022/03/01 06:46:49;;;;;;;5.20;4.80;;;;;;;21.20;25.62;95618.47;5815083;28;103511;-55
2022/03/01 06:49:40;;;;;;;5.77;5.10;;;;;;;21.20;25.40;95616.59;5849215;28;102911;-55
2022/03/01 06:52:32;;;;;;;4.47;4.17;;;;;;;21.16;25.54;95612.88;5865774;28;103414;-55
2022/03/01 06:55:23;;;;;;;6.20;5.27;;;;;;;21.32;25.26;95621.53;5865237;28;104662;-54
2022/03/01 06:58:14;;;;;;;5.07;4.67;;;;;;;21.49;25.25;95610.50;5860650;28;104181;-54
2022/03/01 07:01:04;;;;;;;5.33;4.83;;;;;;;21.61;24.91;95609.03;5864781;28;103093;-55
2022/03/01 07:03:54;;;;;;;5.10;4.70;;;;;;;21.74;25.62;95617.44;5865032;28;103089;-55
2022/03/01 07:06:45;;;;;;;4.20;3.90;;;;;;;21.87;25.13;95614.09;5866073;28;103102;-55
2022/03/01 07:09:35;;;;;;;4.77;4.37;;;;;;;21.97;25.03;95610.50;5859905;28;103233;-54
2022/03/01 07:12:26;;;;;;;4.53;4.17;;;;;;;22.10;24.66;95610.66;5866225;28;102771;-55
2022/03/01 07:15:17;;;;;;;4.90;4.50;;;;;;;22.21;24.52;95611.31;5864923;28;103049;-54
2022/03/01 07:18:08;;;;;;;4.60;4.23;;;;;;;22.31;24.64;95610.38;5847432;28;104857;-55
2022/03/01 07:20:58;;;;;;;4.60;4.20;;;;;;;22.38;24.16;95614.28;5842678;28;103562;-55
2022/03/01 07:23:50;;;;;;;4.47;4.17;;;;;;;22.47;24.15;95625.88;5865780;28;103663;-55
2022/03/01 07:26:41;;;;;;;4.63;4.23;;;;;;;22.56;24.27;95617.25;5865088;28;103376;-55
2022/03/01 07:29:31;;;;;;;4.70;4.30;;;;;;;22.64;24.33;95613.94;5864995;28;102934;-55
2022/03/01 07:32:22;;;;;;;4.77;4.40;;;;;;;22.69;23.96;95614.66;5859581;28;103223;-55
2022/03/01 07:35:12;;;;;;;4.50;4.10;;;;;;;22.76;23.96;95611.63;5865665;28;102720;-55
2022/03/01 07:38:03;;;;;;;4.33;4.03;;;;;;;22.81;24.12;95615.00;5865025;28;103166;-55
2022/03/01 07:40:53;;;;;;;4.60;4.20;;;;;;;22.87;23.88;95610.44;5865774;28;102686;-55
2022/03/01 07:43:44;;;;;;;4.43;4.07;;;;;;;22.95;23.73;95617.75;5860422;28;103346;-55
2022/03/01 07:46:36;;;;;;;4.70;4.30;;;;;;;23.01;23.91;95611.28;5864898;28;103089;-55
2022/03/01 07:49:26;;;;;;;4.07;3.73;;;;;;;23.04;24.21;95608.03;5831837;28;103625;-54
2022/03/01 07:52:17;;;;;;;4.03;3.73;;;;;;;23.10;23.82;95601.53;5841857;28;102961;-55
2022/03/01 07:55:09;;;;;;;4.20;3.90;;;;;;;23.16;23.99;95609.44;5818607;28;103345;-54
2022/03/01 07:58:00;;;;;;;4.03;3.73;;;;;;;23.19;24.16;95609.66;5822281;28;103072;-55
2022/03/01 08:00:50;;;;;;;4.40;4.00;;;;;;;23.24;24.15;95611.44;5841460;28;103219;-55
2022/03/01 08:03:42;;;;;;;3.90;3.60;;;;;;;23.26;23.82;95611.94;5841370;28;102787;-55
2022/03/01 08:06:33;;;;;;;4.27;3.97;;;;;;;23.29;24.26;95616.69;5836048;28;103278;-55
2022/03/01 08:09:24;;;;;;;4.17;3.87;;;;;;;23.33;24.31;95613.13;5841994;28;103057;-55
2022/03/01 08:12:14;;;;;;;4.17;3.77;;;;;;;23.36;24.10;95615.22;5806654;28;103495;-55
2022/03/01 08:15:05;;;;;;;3.90;3.60;;;;;;;23.39;24.00;95621.84;5841665;28;102698;-55
2022/03/01 08:17:58;;;;;;;4.23;3.93;;;;;;;23.43;23.80;95620.16;5836421;28;103309;-54
2022/03/01 08:20:49;;;;;;;3.80;3.50;;;;;;;23.46;23.62;95621.47;5840987;28;103623;-55
2022/03/01 08:23:42;;;;;;;3.60;3.40;;;;;;;23.47;23.69;95620.38;5840881;28;103210;-55
2022/03/01 08:26:33;;;;;;;4.30;3.90;;;;;;;23.50;24.11;95614.44;5836220;28;102814;-55
2022/03/01 08:29:23;;;;;;;3.67;3.40;;;;;;;23.50;24.05;95620.56;5838277;28;105322;-55
2022/03/01 08:32:14;;;;;;;3.60;3.30;;;;;;;23.52;24.08;95615.75;5841137;28;103902;-55
2022/03/01 08:35:05;;;;;;;4.00;3.70;;;;;;;23.53;24.16;95614.66;5841014;28;103199;-55
2022/03/01 08:38:00;;;;;;;4.07;3.70;;;;;;;23.58;24.15;95617.25;5835865;28;103691;-55
2022/03/01 08:40:51;;;;;;;3.20;3.00;;;;;;;23.60;24.24;95624.97;5839921;28;103506;-54
2022/03/01 08:43:42;;;;;;;3.27;3.07;;;;;;;23.56;24.07;95624.75;5840486;28;103929;-55
2022/03/01 08:46:33;;;;;;;3.60;3.40;;;;;;;23.59;23.90;95623.38;5840891;28;103751;-54
2022/03/01 08:49:23;;;;;;;3.60;3.30;;;;;;;23.59;24.04;95624.19;5851067;28;102639;-54
2022/03/01 08:52:14;;;;;;;3.63;3.33;;;;;;;23.59;23.97;95618.06;5863828;28;103259;-54
2022/03/01 08:55:07;;;;;;;4.07;3.77;;;;;;;23.58;23.80;95625.28;5864230;28;102999;-54
2022/03/01 08:57:59;;;;;;;3.77;3.57;;;;;;;23.57;24.06;95625.56;5845305;28;106791;-55
2022/03/01 09:00:49;;;;;;;3.37;3.17;;;;;;;23.56;23.80;95630.06;5840845;28;102878;-55
2022/03/01 09:03:41;;;;;;;3.43;3.23;;;;;;;23.54;24.12;95626.91;5863502;28;103265;-55
2022/03/01 09:06:32;;;;;;;3.00;2.80;;;;;;;23.53;24.04;95628.00;5863565;28;103405;-55
2022/03/01 09:09:23;;;;;;;3.00;2.80;;;;;;;23.50;23.96;95623.22;5863664;28;103086;-54
2022/03/01 09:12:13;;;;;;;3.70;3.40;;;;;;;23.50;24.20;95625.91;5858510;28;102665;-54
2022/03/01 09:15:05;;;;;;;3.27;3.07;;;;;;;23.45;24.57;95622.53;5863575;28;103181;-54
2022/03/01 09:17:55;;;;;;;2.87;2.67;;;;;;;23.36;24.37;95630.44;5863943;28;103039;-55
2022/03/01 09:20:46;;;;;;;3.80;3.43;;;;;;;23.26;24.12;95627.94;5863252;28;103390;-54
2022/03/01 09:23:36;;;;;;;3.77;3.47;;;;;;;23.15;24.28;95624.63;5857996;28;102833;-54
2022/03/01 09:26:27;;;;;;;3.57;3.10;;;;;;;23.08;24.61;95637.56;5863600;28;103106;-54
2022/03/01 09:29:17;;;;;;;3.57;3.37;;;;;;;22.99;24.42;95629.41;5863296;28;102709;-54
2022/03/01 09:32:08;;;;;;;3.37;3.17;;;;;;;22.91;24.71;95630.06;5863371;28;103401;-54
2022/03/01 09:34:58;;;;;;;4.70;3.27;;;;;;;22.84;24.46;95629.63;5857671;28;102912;-54
2022/03/01 09:37:49;;;;;;;3.17;2.97;;;;;;;22.80;24.66;95628.59;5863399;28;103171;-54
2022/03/01 09:40:40;;;;;;;3.20;3.00;;;;;;;22.73;24.91;95628.19;5862289;28;103315;-54
2022/03/01 09:43:36;;;;;;;3.40;3.10;;;;;;;22.68;24.86;95630.94;5840844;28;103572;-54
2022/03/01 09:46:26;;;;;;;3.17;2.97;;;;;;;22.61;25.07;95635.81;5844972;28;102893;-54
2022/03/01 09:49:17;;;;;;;3.30;3.07;;;;;;;22.54;25.16;95622.06;5848772;28;103207;-54
2022/03/01 09:52:07;;;;;;;3.13;2.93;;;;;;;22.47;24.96;95630.41;5839648;28;103173;-54
2022/03/01 09:54:58;;;;;;;2.90;2.70;;;;;;;22.42;25.23;95633.16;5835319;28;103739;-54
2022/03/01 09:57:48;;;;;;;3.17;2.97;;;;;;;22.37;25.50;95617.25;5840115;28;103338;-54
2022/03/01 10:00:39;;;;;;;3.00;2.80;;;;;;;22.34;25.70;95615.94;5839458;28;103226;-54
2022/03/01 10:03:29;;;;;;;3.97;3.67;;;;;;;22.33;25.58;95619.66;5840231;28;102684;-55
2022/03/01 10:06:22;;;;;;;3.10;2.90;;;;;;;22.31;25.36;95611.19;5834074;28;104603;-55
2022/03/01 10:09:18;;;;;;;2.80;2.60;;;;;;;22.31;25.56;95610.38;5821562;28;102864;-55
2022/03/01 10:12:09;;;;;;;3.50;3.30;;;;;;;22.30;25.67;95617.59;5838666;28;103587;-54
2022/03/01 10:15:05;;;;;;;3.17;2.97;;;;;;;22.27;25.59;95607.50;5839798;28;103190;-56
2022/03/01 10:18:09;;;;;;;3.20;3.00;;;;;;;22.23;25.22;95617.16;5834148;28;103200;-54
2022/03/01 10:21:03;;;;;;;3.60;3.30;;;;;;;22.28;25.33;95601.09;5834402;28;103156;-57
2022/03/01 10:23:58;;;;;;;5.03;4.63;;;;;;;22.26;25.52;95605.13;5843171;28;103456;-54
2022/03/01 10:26:49;;;;;;;4.50;4.20;;;;;;;22.24;25.35;95604.63;5842617;28;103080;-55
2022/03/01 10:29:47;;;;;;;6.03;5.60;;;;;;;22.19;25.43;95597.50;5838459;28;103109;-55
2022/03/01 10:32:38;;;;;;;6.07;5.57;;;;;;;22.15;25.76;95591.94;5843894;28;103069;-55
2022/03/01 10:35:28;;;;;;;6.10;5.60;;;;;;;22.15;25.46;95605.25;5843128;28;103455;-54
2022/03/01 10:38:21;;;;;;;5.80;5.30;;;;;;;22.14;25.58;95595.69;5843218;28;103412;-55
2022/03/01 10:41:23;;;;;;;6.20;5.77;;;;;;;22.10;25.47;95594.69;5839218;28;104380;-54
2022/03/01 10:44:20;;;;;;;5.40;5.00;;;;;;;22.08;25.28;95580.88;5843352;28;102861;-55
2022/03/01 10:47:18;;;;;;;5.57;5.07;;;;;;;22.09;25.41;95574.47;5842838;28;103125;-54
2022/03/01 10:50:10;;;;;;;5.27;4.87;;;;;;;22.11;25.71;95579.50;5859236;28;102793;-54
2022/03/01 10:53:02;;;;;;;5.17;4.63;;;;;;;22.10;25.56;95573.41;5866054;28;103434;-55
2022/03/01 10:56:00;;;;;;;5.27;4.87;;;;;;;22.10;25.73;95578.72;5866050;28;102714;-55
2022/03/01 10:58:56;;;;;;;4.93;4.60;;;;;;;22.09;25.56;95569.16;5865448;28;103109;-54
2022/03/01 11:01:46;;;;;;;5.00;4.60;;;;;;;22.08;25.55;95574.75;5860322;28;103812;-55
2022/03/01 11:04:37;;;;;;;5.17;4.80;;;;;;;22.08;25.51;95569.44;5863230;28;106579;-55
2022/03/01 11:07:29;;;;;;;4.87;4.47;;;;;;;22.05;25.37;95570.00;5866170;28;102655;-54
2022/03/01 11:10:22;;;;;;;4.37;4.07;;;;;;;22.05;25.65;95567.34;5865507;28;103429;-55
2022/03/01 11:13:12;;;;;;;5.20;4.80;;;;;;;22.02;25.75;95559.91;5859422;28;103156;-54
2022/03/01 11:16:41;;;;;;;5.50;5.00;;;;;;;21.97;25.67;95558.09;5865284;28;103178;-54
2022/03/01 11:19:52;;;;;;;4.57;4.27;;;;;;;21.97;25.89;95557.31;5841035;28;103095;-55
2022/03/01 11:22:46;;;;;;;4.50;4.20;;;;;;;21.96;25.85;95553.06;5860844;28;103948;-54
2022/03/01 11:25:41;;;;;;;4.30;4.00;;;;;;;;;;5866416;28;103667;-54
2022/03/01 11:28:40;;;;;;;4.80;4.40;;;;;;;21.93;25.55;95543.78;5864790;28;104253;-55
2022/03/01 11:31:31;;;;;;;4.67;4.37;;;;;;;21.92;25.44;95540.34;5865247;28;103861;-54
2022/03/01 11:34:25;;;;;;;4.20;3.90;;;;;;;21.89;25.62;95535.59;5858811;28;103200;-55
2022/03/01 11:37:18;;;;;;;4.30;4.00;;;;;;;21.90;25.39;95528.41;5865184;28;102932;-55
2022/03/01 11:40:20;;;;;;;4.80;4.43;;;;;;;21.88;25.46;95528.69;5865370;28;103241;-54
2022/03/01 11:43:14;;;;;;;4.13;3.83;;;;;;;21.87;25.45;95531.63;5865600;28;102757;-55
2022/03/01 11:46:15;;;;;;;4.30;4.00;;;;;;;21.86;25.56;95522.88;5859884;28;103126;-54
2022/03/01 11:49:06;;;;;;;4.10;3.80;;;;;;;21.85;25.64;95520.50;5849634;28;102885;-55
2022/03/01 11:51:58;;;;;;;4.10;3.80;;;;;;;21.85;25.48;95525.81;5841370;28;103148;-55
2022/03/01 11:54:51;;;;;;;3.90;3.60;;;;;;;21.83;25.52;95515.44;5841073;28;103019;-54
2022/03/01 11:57:42;;;;;;;4.30;4.00;;;;;;;21.83;25.47;95509.31;5835244;28;103431;-55
2022/03/01 12:00:35;;;;;;;3.80;3.50;;;;;;;21.83;25.50;95504.00;5823901;28;102800;-55
2022/03/01 12:03:27;;;;;;;4.30;4.00;;;;;;;21.80;25.69;95492.06;5840611;28;103143;-55
2022/03/01 12:06:21;;;;;;;4.40;4.03;;;;;;;21.81;25.51;95496.31;5840968;28;102747;-57
2022/03/01 12:09:15;;;;;;;3.67;3.37;;;;;;;21.80;25.36;95492.06;5838540;28;104506;-54
2022/03/01 12:12:08;;;;;;;3.60;3.40;;;;;;;21.79;25.44;95490.50;5841211;28;103151;-54
2022/03/01 12:14:59;;;;;;;3.60;3.40;;;;;;;21.79;25.49;95487.81;5823160;28;104130;-53
2022/03/01 12:17:50;;;;;;;4.00;3.70;;;;;;;21.76;25.55;95482.28;5817824;28;103146;-53
2022/03/01 12:20:46;;;;;;;3.87;3.57;;;;;;;21.77;25.56;95479.34;5839842;28;103511;-53
2022/03/01 12:23:38;;;;;;;3.87;3.57;;;;;;;21.75;25.27;95470.88;5841407;28;103598;-53
2022/03/01 12:26:30;;;;;;;3.73;3.43;;;;;;;21.76;25.48;95490.28;5840443;28;103474;-54
2022/03/01 12:29:25;;;;;;;4.10;3.80;;;;;;;21.74;25.58;95476.47;5836398;28;105882;-54
2022/03/01 12:32:18;;;;;;;3.30;3.10;;;;;;;21.76;25.57;95482.28;5840842;28;103129;-55
2022/03/01 12:35:09;;;;;;;3.20;3.00;;;;;;;21.74;25.54;95484.44;5840894;28;102638;-54
2022/03/01 12:38:12;;;;;;;3.93;3.63;;;;;;;21.74;25.58;95484.44;5840386;28;103176;-54
2022/03/01 12:41:10;;;;;;;3.60;3.40;;;;;;;21.73;25.57;95480.22;5894285;22;103688;-79
2022/03/01 12:44:03;;;;;;;3.83;3.60;;;;;;;21.70;25.72;95478.91;5870259;28;102669;-78
2022/03/01 12:46:55;;;;;;;3.40;3.10;;;;;;;21.70;25.73;95478.91;5847696;28;104840;-77
2022/03/01 12:49:46;;;;;;;3.60;3.30;;;;;;;21.68;25.69;95485.59;5864528;28;106211;-77
2022/03/01 12:52:36;;;;;;;3.20;3.00;;;;;;;21.67;25.64;95486.66;5859746;28;104722;-77
2022/03/01 12:55:27;;;;;;;2.77;2.57;;;;;;;21.65;25.51;95475.50;5864486;28;105350;-78
2022/03/01 12:58:23;;;;;;;3.37;3.17;;;;;;;21.63;25.53;95473.94;5848356;28;102906;-77
2022/03/01 13:01:14;;;;;;;3.50;3.20;;;;;;;21.66;25.58;95477.09;5865843;28;103806;-77
2022/03/01 13:04:08;;;;;;;3.27;3.07;;;;;;;21.65;25.52;95476.31;5843159;28;103275;-77
2022/03/01 13:06:59;;;;;;;3.47;3.20;;;;;;;21.63;25.52;95467.81;5848589;28;105748;-76
2022/03/01 13:10:00;;;;;;;3.40;3.20;;;;;;;21.66;25.65;95474.44;5864362;28;105153;-77
2022/03/01 13:12:52;;;;;;;3.13;2.93;;;;;;;21.62;25.76;95471.56;5843756;28;105590;-77
2022/03/01 13:15:47;;;;;;;3.83;3.40;;;;;;;21.63;25.50;95462.50;5863158;28;105553;-77
2022/03/01 13:18:37;;;;;;;3.23;3.03;;;;;;;21.61;25.77;95464.66;5846711;28;105396;-76